ENSH

Svolvær Helle Airport

Svolvær, Norway
METAR ENSH 191850Z 05002KT 9999 FEW006 BKN100 09/08 Q0993 RMK WIND 150FT VRB01KT
Observed Flight Rules
Jun-19 @ 18:50 UTC (an hour ago) Visual Flight Rules
Wind Visibility Clouds
50° at 2 knots 10,000+ meters
  • Few at 600' AGL
  • Broken at 10,000' AGL
Temperatures Readings
Current 9°C / 48°F
Dewpoint 8°C / 46°F
Humidity 94%
Altimeter 29.32" Hg
Pressure 993 hPa
Elevation 9
METAR ENSH 191850Z 05002KT 9999 FEW006 BKN100 09/08 Q0993 RMK WIND 150FT VRB01KT
Observed Flight Rules
Jun-19 @ 18:50 UTC
(an hour ago)
VFR
Wind Visibility
50° at 2 knots 10,000+ meters
Clouds
  • Few at 600' AGL
  • Broken at 10,000' AGL
Temperature Dewpoint
9°C / 48°F 8°C / 46°F
Humidity Altimeter Pressure
94% 29.32" Hg 993 hPa